sensor_id;sensor_type;location;lat;lon;timestamp;temperature;humidity
22114;DHT22;11223;49.968;9.062;2022-08-19T00:01:10;19.10;99.90
22114;DHT22;11223;49.968;9.062;2022-08-19T00:03:35;19.10;99.90
22114;DHT22;11223;49.968;9.062;2022-08-19T00:06:01;19.10;99.90
22114;DHT22;11223;49.968;9.062;2022-08-19T00:08:26;19.20;99.90
22114;DHT22;11223;49.968;9.062;2022-08-19T00:10:52;19.20;99.90
22114;DHT22;11223;49.968;9.062;2022-08-19T00:13:18;19.10;99.90
22114;DHT22;11223;49.968;9.062;2022-08-19T00:15:44;19.20;99.90
22114;DHT22;11223;49.968;9.062;2022-08-19T00:18:10;19.20;99.90
22114;DHT22;11223;49.968;9.062;2022-08-19T00:20:35;19.20;99.90
22114;DHT22;11223;49.968;9.062;2022-08-19T00:23:01;19.20;99.90
22114;DHT22;11223;49.968;9.062;2022-08-19T00:25:29;19.20;99.90
22114;DHT22;11223;49.968;9.062;2022-08-19T00:27:55;19.20;99.90
22114;DHT22;11223;49.968;9.062;2022-08-19T00:30:21;19.20;99.90
22114;DHT22;11223;49.968;9.062;2022-08-19T00:32:46;19.20;99.90
22114;DHT22;11223;49.968;9.062;2022-08-19T00:35:12;19.20;99.90
22114;DHT22;11223;49.968;9.062;2022-08-19T00:37:38;19.20;99.90
22114;DHT22;11223;49.968;9.062;2022-08-19T00:40:10;19.20;99.90
22114;DHT22;11223;49.968;9.062;2022-08-19T00:42:36;19.20;99.90
22114;DHT22;11223;49.968;9.062;2022-08-19T00:45:02;19.20;99.90
22114;DHT22;11223;49.968;9.062;2022-08-19T00:47:33;19.20;99.90
22114;DHT22;11223;49.968;9.062;2022-08-19T00:49:59;19.20;99.90
22114;DHT22;11223;49.968;9.062;2022-08-19T00:52:30;19.20;99.90
22114;DHT22;11223;49.968;9.062;2022-08-19T00:54:57;19.20;99.90
22114;DHT22;11223;49.968;9.062;2022-08-19T00:57:36;19.20;99.90
22114;DHT22;11223;49.968;9.062;2022-08-19T01:00:09;19.20;99.90
22114;DHT22;11223;49.968;9.062;2022-08-19T01:02:37;19.20;99.90
22114;DHT22;11223;49.968;9.062;2022-08-19T01:05:07;19.20;99.90
22114;DHT22;11223;49.968;9.062;2022-08-19T01:07:34;19.20;99.90
22114;DHT22;11223;49.968;9.062;2022-08-19T01:10:01;19.20;99.90
22114;DHT22;11223;49.968;9.062;2022-08-19T01:12:27;19.20;99.90
22114;DHT22;11223;49.968;9.062;2022-08-19T01:14:53;19.20;99.90
22114;DHT22;11223;49.968;9.062;2022-08-19T01:17:20;19.20;99.90
22114;DHT22;11223;49.968;9.062;2022-08-19T01:19:46;19.20;99.90
22114;DHT22;11223;49.968;9.062;2022-08-19T01:24:44;19.20;99.90
22114;DHT22;11223;49.968;9.062;2022-08-19T01:27:10;19.20;99.90
22114;DHT22;11223;49.968;9.062;2022-08-19T01:29:39;19.20;99.90
22114;DHT22;11223;49.968;9.062;2022-08-19T01:32:06;19.20;99.90
22114;DHT22;11223;49.968;9.062;2022-08-19T01:34:32;19.20;99.90
22114;DHT22;11223;49.968;9.062;2022-08-19T01:36:59;19.30;99.90
22114;DHT22;11223;49.968;9.062;2022-08-19T01:39:27;19.20;99.90
22114;DHT22;11223;49.968;9.062;2022-08-19T01:41:53;19.20;99.90
22114;DHT22;11223;49.968;9.062;2022-08-19T01:44:19;19.20;99.90
22114;DHT22;11223;49.968;9.062;2022-08-19T01:46:49;19.20;99.90
22114;DHT22;11223;49.968;9.062;2022-08-19T01:49:20;19.20;99.90
22114;DHT22;11223;49.968;9.062;2022-08-19T01:51:47;19.20;99.90
22114;DHT22;11223;49.968;9.062;2022-08-19T01:54:14;19.20;99.90
22114;DHT22;11223;49.968;9.062;2022-08-19T01:56:40;19.20;99.90
22114;DHT22;11223;49.968;9.062;2022-08-19T01:59:11;19.20;99.90
22114;DHT22;11223;49.968;9.062;2022-08-19T02:01:38;19.20;99.90
22114;DHT22;11223;49.968;9.062;2022-08-19T02:04:04;19.10;99.90
22114;DHT22;11223;49.968;9.062;2022-08-19T02:06:31;19.10;99.90
22114;DHT22;11223;49.968;9.062;2022-08-19T02:08:57;19.10;99.90
22114;DHT22;11223;49.968;9.062;2022-08-19T02:11:28;19.10;99.90
22114;DHT22;11223;49.968;9.062;2022-08-19T02:13:56;19.10;99.90
22114;DHT22;11223;49.968;9.062;2022-08-19T02:16:23;19.10;99.90
22114;DHT22;11223;49.968;9.062;2022-08-19T02:18:49;19.10;99.90
22114;DHT22;11223;49.968;9.062;2022-08-19T02:21:16;19.10;99.90
22114;DHT22;11223;49.968;9.062;2022-08-19T02:23:42;19.10;99.90
22114;DHT22;11223;49.968;9.062;2022-08-19T02:26:08;19.10;99.90
22114;DHT22;11223;49.968;9.062;2022-08-19T02:28:34;19.10;99.90
22114;DHT22;11223;49.968;9.062;2022-08-19T02:31:00;19.10;99.90
22114;DHT22;11223;49.968;9.062;2022-08-19T02:33:26;19.00;99.90
22114;DHT22;11223;49.968;9.062;2022-08-19T02:35:52;19.00;99.90
22114;DHT22;11223;49.968;9.062;2022-08-19T02:38:18;19.00;99.90
22114;DHT22;11223;49.968;9.062;2022-08-19T02:41:04;19.00;99.90
22114;DHT22;11223;49.968;9.062;2022-08-19T02:43:32;19.10;99.90
22114;DHT22;11223;49.968;9.062;2022-08-19T02:45:58;19.00;99.90
22114;DHT22;11223;49.968;9.062;2022-08-19T02:48:24;19.10;99.90
22114;DHT22;11223;49.968;9.062;2022-08-19T02:50:52;19.10;99.90
22114;DHT22;11223;49.968;9.062;2022-08-19T02:53:21;19.00;99.90
22114;DHT22;11223;49.968;9.062;2022-08-19T02:55:48;19.00;99.90
22114;DHT22;11223;49.968;9.062;2022-08-19T02:58:15;19.00;99.90
22114;DHT22;11223;49.968;9.062;2022-08-19T03:00:47;19.00;99.90
22114;DHT22;11223;49.968;9.062;2022-08-19T03:03:13;19.00;99.90
22114;DHT22;11223;49.968;9.062;2022-08-19T03:05:39;18.90;99.90
22114;DHT22;11223;49.968;9.062;2022-08-19T03:08:05;18.90;99.90
22114;DHT22;11223;49.968;9.062;2022-08-19T03:10:32;18.90;99.90
22114;DHT22;11223;49.968;9.062;2022-08-19T03:12:58;18.90;99.90
22114;DHT22;11223;49.968;9.062;2022-08-19T03:15:23;18.90;99.90
22114;DHT22;11223;49.968;9.062;2022-08-19T03:17:49;18.90;99.90
22114;DHT22;11223;49.968;9.062;2022-08-19T03:20:14;18.90;99.90
22114;DHT22;11223;49.968;9.062;2022-08-19T03:22:40;18.80;99.90
22114;DHT22;11223;49.968;9.062;2022-08-19T03:25:06;18.80;99.90
22114;DHT22;11223;49.968;9.062;2022-08-19T03:27:31;18.80;99.90
22114;DHT22;11223;49.968;9.062;2022-08-19T03:29:57;18.80;99.90
22114;DHT22;11223;49.968;9.062;2022-08-19T03:32:22;18.70;99.90
22114;DHT22;11223;49.968;9.062;2022-08-19T03:34:48;18.70;99.90
22114;DHT22;11223;49.968;9.062;2022-08-19T03:37:14;18.70;99.90
22114;DHT22;11223;49.968;9.062;2022-08-19T03:39:41;18.70;99.90
22114;DHT22;11223;49.968;9.062;2022-08-19T03:42:08;18.60;99.90
22114;DHT22;11223;49.968;9.062;2022-08-19T03:44:33;18.60;99.90
22114;DHT22;11223;49.968;9.062;2022-08-19T03:47:01;18.60;99.90
22114;DHT22;11223;49.968;9.062;2022-08-19T03:49:29;18.50;99.90
22114;DHT22;11223;49.968;9.062;2022-08-19T03:51:57;18.50;99.90
22114;DHT22;11223;49.968;9.062;2022-08-19T03:54:26;18.50;99.90
22114;DHT22;11223;49.968;9.062;2022-08-19T03:56:53;18.50;99.90
22114;DHT22;11223;49.968;9.062;2022-08-19T03:59:23;18.50;99.90
22114;DHT22;11223;49.968;9.062;2022-08-19T04:01:55;18.50;99.90
22114;DHT22;11223;49.968;9.062;2022-08-19T04:04:21;18.50;99.90
22114;DHT22;11223;49.968;9.062;2022-08-19T04:06:47;18.50;99.90
22114;DHT22;11223;49.968;9.062;2022-08-19T04:09:13;18.50;99.90
22114;DHT22;11223;49.968;9.062;2022-08-19T04:11:46;18.50;99.90
22114;DHT22;11223;49.968;9.062;2022-08-19T04:14:14;18.50;99.90
22114;DHT22;11223;49.968;9.062;2022-08-19T04:16:40;18.50;99.90
22114;DHT22;11223;49.968;9.062;2022-08-19T04:19:06;18.50;99.90
22114;DHT22;11223;49.968;9.062;2022-08-19T04:21:32;18.50;99.90
22114;DHT22;11223;49.968;9.062;2022-08-19T04:23:59;18.60;99.90
22114;DHT22;11223;49.968;9.062;2022-08-19T04:26:28;18.60;99.90
22114;DHT22;11223;49.968;9.062;2022-08-19T04:28:58;18.60;99.90
22114;DHT22;11223;49.968;9.062;2022-08-19T04:31:27;18.60;99.90
22114;DHT22;11223;49.968;9.062;2022-08-19T04:33:56;18.60;99.90
22114;DHT22;11223;49.968;9.062;2022-08-19T04:36:29;18.60;99.90
22114;DHT22;11223;49.968;9.062;2022-08-19T04:38:58;18.60;99.90
22114;DHT22;11223;49.968;9.062;2022-08-19T04:41:24;18.60;99.90
22114;DHT22;11223;49.968;9.062;2022-08-19T04:44:09;18.60;99.90
22114;DHT22;11223;49.968;9.062;2022-08-19T04:46:36;18.60;99.90
22114;DHT22;11223;49.968;9.062;2022-08-19T04:49:04;18.60;99.90
22114;DHT22;11223;49.968;9.062;2022-08-19T04:51:31;18.60;99.90
22114;DHT22;11223;49.968;9.062;2022-08-19T04:53:57;18.60;99.90
22114;DHT22;11223;49.968;9.062;2022-08-19T04:56:25;18.60;99.90
22114;DHT22;11223;49.968;9.062;2022-08-19T04:58:53;18.70;99.90
22114;DHT22;11223;49.968;9.062;2022-08-19T05:01:26;18.70;99.90
22114;DHT22;11223;49.968;9.062;2022-08-19T05:03:54;18.70;99.90
22114;DHT22;11223;49.968;9.062;2022-08-19T05:06:21;18.70;99.90
22114;DHT22;11223;49.968;9.062;2022-08-19T05:08:47;18.70;99.90
22114;DHT22;11223;49.968;9.062;2022-08-19T05:13:41;18.70;99.90
22114;DHT22;11223;49.968;9.062;2022-08-19T05:16:10;18.80;99.90
22114;DHT22;11223;49.968;9.062;2022-08-19T05:18:35;18.80;99.90
22114;DHT22;11223;49.968;9.062;2022-08-19T05:21:20;18.80;99.90
22114;DHT22;11223;49.968;9.062;2022-08-19T05:24:05;18.80;99.90
22114;DHT22;11223;49.968;9.062;2022-08-19T05:26:39;18.80;99.90
22114;DHT22;11223;49.968;9.062;2022-08-19T05:29:05;18.80;99.90
22114;DHT22;11223;49.968;9.062;2022-08-19T05:31:32;18.80;99.90
22114;DHT22;11223;49.968;9.062;2022-08-19T05:33:58;18.90;99.90
22114;DHT22;11223;49.968;9.062;2022-08-19T05:36:28;18.90;99.90
22114;DHT22;11223;49.968;9.062;2022-08-19T05:38:54;18.90;99.90
22114;DHT22;11223;49.968;9.062;2022-08-19T05:41:22;18.90;99.90
22114;DHT22;11223;49.968;9.062;2022-08-19T05:43:55;18.90;99.90
22114;DHT22;11223;49.968;9.062;2022-08-19T05:46:21;18.90;99.90
22114;DHT22;11223;49.968;9.062;2022-08-19T05:48:47;18.90;99.90
22114;DHT22;11223;49.968;9.062;2022-08-19T05:51:14;19.00;99.90
22114;DHT22;11223;49.968;9.062;2022-08-19T05:53:41;19.00;99.90
22114;DHT22;11223;49.968;9.062;2022-08-19T05:56:10;19.00;99.90
22114;DHT22;11223;49.968;9.062;2022-08-19T05:58:37;19.00;99.90
22114;DHT22;11223;49.968;9.062;2022-08-19T06:01:09;19.10;99.90
22114;DHT22;11223;49.968;9.062;2022-08-19T06:03:35;19.10;99.90
22114;DHT22;11223;49.968;9.062;2022-08-19T06:06:03;19.20;99.90
22114;DHT22;11223;49.968;9.062;2022-08-19T06:08:29;19.30;99.90
22114;DHT22;11223;49.968;9.062;2022-08-19T06:10:55;19.30;99.90
22114;DHT22;11223;49.968;9.062;2022-08-19T06:13:21;19.30;99.90
22114;DHT22;11223;49.968;9.062;2022-08-19T06:15:48;19.30;99.90
22114;DHT22;11223;49.968;9.062;2022-08-19T06:18:14;19.40;99.90
22114;DHT22;11223;49.968;9.062;2022-08-19T06:20:40;19.40;99.90
22114;DHT22;11223;49.968;9.062;2022-08-19T06:23:06;19.50;99.90
22114;DHT22;11223;49.968;9.062;2022-08-19T06:25:32;19.60;99.90
22114;DHT22;11223;49.968;9.062;2022-08-19T06:27:57;19.60;99.90
22114;DHT22;11223;49.968;9.062;2022-08-19T06:30:23;19.70;99.90
22114;DHT22;11223;49.968;9.062;2022-08-19T06:32:48;19.70;99.90
22114;DHT22;11223;49.968;9.062;2022-08-19T06:35:14;19.80;99.90
22114;DHT22;11223;49.968;9.062;2022-08-19T06:37:40;19.80;99.90
22114;DHT22;11223;49.968;9.062;2022-08-19T06:40:07;19.80;99.90
22114;DHT22;11223;49.968;9.062;2022-08-19T06:42:34;19.80;99.90
22114;DHT22;11223;49.968;9.062;2022-08-19T06:45:01;19.90;99.90
22114;DHT22;11223;49.968;9.062;2022-08-19T06:47:29;19.90;99.90
22114;DHT22;11223;49.968;9.062;2022-08-19T06:49:57;19.90;99.90
22114;DHT22;11223;49.968;9.062;2022-08-19T06:52:28;19.90;99.90
22114;DHT22;11223;49.968;9.062;2022-08-19T06:54:53;19.90;99.90
22114;DHT22;11223;49.968;9.062;2022-08-19T06:57:20;19.90;99.90
22114;DHT22;11223;49.968;9.062;2022-08-19T06:59:46;20.00;99.90
22114;DHT22;11223;49.968;9.062;2022-08-19T07:02:11;20.00;99.90
22114;DHT22;11223;49.968;9.062;2022-08-19T07:04:37;20.00;99.90
22114;DHT22;11223;49.968;9.062;2022-08-19T07:07:11;20.00;99.90
22114;DHT22;11223;49.968;9.062;2022-08-19T07:09:41;20.00;99.90
22114;DHT22;11223;49.968;9.062;2022-08-19T07:12:09;20.10;99.90
22114;DHT22;11223;49.968;9.062;2022-08-19T07:14:36;20.10;99.90
22114;DHT22;11223;49.968;9.062;2022-08-19T07:17:05;20.20;99.90
22114;DHT22;11223;49.968;9.062;2022-08-19T07:19:32;20.20;99.90
22114;DHT22;11223;49.968;9.062;2022-08-19T07:22:01;20.20;99.90
22114;DHT22;11223;49.968;9.062;2022-08-19T07:24:28;20.20;99.90
22114;DHT22;11223;49.968;9.062;2022-08-19T07:26:56;20.20;99.90
22114;DHT22;11223;49.968;9.062;2022-08-19T07:29:23;20.30;99.90
22114;DHT22;11223;49.968;9.062;2022-08-19T07:31:53;20.30;99.90
22114;DHT22;11223;49.968;9.062;2022-08-19T07:34:21;20.40;99.90
22114;DHT22;11223;49.968;9.062;2022-08-19T07:36:47;20.50;99.90
22114;DHT22;11223;49.968;9.062;2022-08-19T07:39:17;20.50;99.90
22114;DHT22;11223;49.968;9.062;2022-08-19T07:41:43;20.60;99.90
22114;DHT22;11223;49.968;9.062;2022-08-19T07:44:09;20.70;99.90
22114;DHT22;11223;49.968;9.062;2022-08-19T07:46:38;20.80;99.90
22114;DHT22;11223;49.968;9.062;2022-08-19T07:49:06;20.90;99.90
22114;DHT22;11223;49.968;9.062;2022-08-19T07:51:32;21.00;99.90
22114;DHT22;11223;49.968;9.062;2022-08-19T07:53:59;21.00;99.90
22114;DHT22;11223;49.968;9.062;2022-08-19T07:56:25;21.10;99.90
22114;DHT22;11223;49.968;9.062;2022-08-19T07:58:52;21.10;99.90
22114;DHT22;11223;49.968;9.062;2022-08-19T08:01:21;21.20;99.90
22114;DHT22;11223;49.968;9.062;2022-08-19T08:03:48;21.20;99.90
22114;DHT22;11223;49.968;9.062;2022-08-19T08:06:32;21.20;99.90
22114;DHT22;11223;49.968;9.062;2022-08-19T08:09:30;21.30;99.90
22114;DHT22;11223;49.968;9.062;2022-08-19T08:11:59;21.30;99.90
22114;DHT22;11223;49.968;9.062;2022-08-19T08:14:29;21.40;99.90
22114;DHT22;11223;49.968;9.062;2022-08-19T08:16:55;21.40;99.90
22114;DHT22;11223;49.968;9.062;2022-08-19T08:19:23;21.50;99.90
22114;DHT22;11223;49.968;9.062;2022-08-19T08:21:50;21.60;99.90
22114;DHT22;11223;49.968;9.062;2022-08-19T08:24:17;21.70;99.90
22114;DHT22;11223;49.968;9.062;2022-08-19T08:26:43;21.80;99.90
22114;DHT22;11223;49.968;9.062;2022-08-19T08:29:12;22.00;99.90
22114;DHT22;11223;49.968;9.062;2022-08-19T08:31:42;22.10;99.90
22114;DHT22;11223;49.968;9.062;2022-08-19T08:34:08;22.30;99.90
22114;DHT22;11223;49.968;9.062;2022-08-19T08:36:38;22.70;99.90
22114;DHT22;11223;49.968;9.062;2022-08-19T08:39:09;23.10;99.90
22114;DHT22;11223;49.968;9.062;2022-08-19T08:41:45;23.40;99.90
22114;DHT22;11223;49.968;9.062;2022-08-19T08:44:20;23.80;99.90
22114;DHT22;11223;49.968;9.062;2022-08-19T08:46:50;24.10;99.90
22114;DHT22;11223;49.968;9.062;2022-08-19T08:49:29;24.40;99.90
22114;DHT22;11223;49.968;9.062;2022-08-19T08:52:15;24.70;99.90
22114;DHT22;11223;49.968;9.062;2022-08-19T08:54:46;24.80;99.90
22114;DHT22;11223;49.968;9.062;2022-08-19T09:00:05;24.80;99.90
22114;DHT22;11223;49.968;9.062;2022-08-19T09:02:33;24.70;99.90
22114;DHT22;11223;49.968;9.062;2022-08-19T09:04:59;24.60;99.90
22114;DHT22;11223;49.968;9.062;2022-08-19T09:07:48;24.50;99.90
22114;DHT22;11223;49.968;9.062;2022-08-19T09:16:10;24.30;99.90
22114;DHT22;11223;49.968;9.062;2022-08-19T09:18:58;24.20;99.90
22114;DHT22;11223;49.968;9.062;2022-08-19T09:21:25;24.10;99.90
22114;DHT22;11223;49.968;9.062;2022-08-19T09:23:52;24.10;99.90
22114;DHT22;11223;49.968;9.062;2022-08-19T09:26:21;24.10;99.90
22114;DHT22;11223;49.968;9.062;2022-08-19T09:28:49;24.00;99.90
22114;DHT22;11223;49.968;9.062;2022-08-19T09:31:23;23.90;99.90
22114;DHT22;11223;49.968;9.062;2022-08-19T09:33:51;23.90;99.90
22114;DHT22;11223;49.968;9.062;2022-08-19T09:36:19;24.00;99.90
22114;DHT22;11223;49.968;9.062;2022-08-19T09:38:45;24.10;99.90
22114;DHT22;11223;49.968;9.062;2022-08-19T09:41:15;24.10;99.90
22114;DHT22;11223;49.968;9.062;2022-08-19T09:43:42;24.20;99.90
22114;DHT22;11223;49.968;9.062;2022-08-19T09:46:09;24.20;99.90
22114;DHT22;11223;49.968;9.062;2022-08-19T09:48:43;24.30;99.90
22114;DHT22;11223;49.968;9.062;2022-08-19T09:51:12;24.40;99.90
22114;DHT22;11223;49.968;9.062;2022-08-19T09:53:42;24.60;99.90
22114;DHT22;11223;49.968;9.062;2022-08-19T09:56:08;24.80;99.90
22114;DHT22;11223;49.968;9.062;2022-08-19T09:58:35;24.90;99.90
22114;DHT22;11223;49.968;9.062;2022-08-19T10:01:02;25.10;99.90
22114;DHT22;11223;49.968;9.062;2022-08-19T10:03:29;25.40;99.90
22114;DHT22;11223;49.968;9.062;2022-08-19T10:05:57;25.70;99.90
22114;DHT22;11223;49.968;9.062;2022-08-19T10:08:27;25.80;99.90
22114;DHT22;11223;49.968;9.062;2022-08-19T10:10:54;26.00;99.90
22114;DHT22;11223;49.968;9.062;2022-08-19T10:13:22;26.00;99.90
22114;DHT22;11223;49.968;9.062;2022-08-19T10:15:51;26.20;99.90
22114;DHT22;11223;49.968;9.062;2022-08-19T10:18:19;26.40;99.90
22114;DHT22;11223;49.968;9.062;2022-08-19T10:20:46;26.70;99.90
22114;DHT22;11223;49.968;9.062;2022-08-19T10:23:12;26.90;99.90
22114;DHT22;11223;49.968;9.062;2022-08-19T10:25:38;27.10;99.90
22114;DHT22;11223;49.968;9.062;2022-08-19T10:28:04;27.30;98.60
22114;DHT22;11223;49.968;9.062;2022-08-19T10:30:31;27.40;98.00
22114;DHT22;11223;49.968;9.062;2022-08-19T10:32:57;27.50;97.30
22114;DHT22;11223;49.968;9.062;2022-08-19T10:35:22;27.60;97.20
22114;DHT22;11223;49.968;9.062;2022-08-19T10:37:49;27.40;98.10
22114;DHT22;11223;49.968;9.062;2022-08-19T10:40:14;27.30;96.90
22114;DHT22;11223;49.968;9.062;2022-08-19T10:42:40;27.40;96.30
22114;DHT22;11223;49.968;9.062;2022-08-19T10:45:06;27.50;95.80
22114;DHT22;11223;49.968;9.062;2022-08-19T10:47:33;27.80;95.80
22114;DHT22;11223;49.968;9.062;2022-08-19T10:49:58;28.00;95.10
22114;DHT22;11223;49.968;9.062;2022-08-19T10:52:47;28.20;95.00
22114;DHT22;11223;49.968;9.062;2022-08-19T10:55:12;28.30;94.40
22114;DHT22;11223;49.968;9.062;2022-08-19T10:57:56;28.30;93.80
22114;DHT22;11223;49.968;9.062;2022-08-19T11:00:23;28.40;93.30
22114;DHT22;11223;49.968;9.062;2022-08-19T11:02:50;28.40;94.80
22114;DHT22;11223;49.968;9.062;2022-08-19T11:05:16;28.30;93.90
22114;DHT22;11223;49.968;9.062;2022-08-19T11:07:43;28.40;93.30
22114;DHT22;11223;49.968;9.062;2022-08-19T11:10:11;28.50;94.10
22114;DHT22;11223;49.968;9.062;2022-08-19T11:12:38;28.50;92.80
22114;DHT22;11223;49.968;9.062;2022-08-19T11:15:08;28.60;92.50
22114;DHT22;11223;49.968;9.062;2022-08-19T11:17:39;28.70;93.10
22114;DHT22;11223;49.968;9.062;2022-08-19T11:20:10;28.70;92.80
22114;DHT22;11223;49.968;9.062;2022-08-19T11:22:36;28.40;92.90
22114;DHT22;11223;49.968;9.062;2022-08-19T11:25:02;28.10;93.70
22114;DHT22;11223;49.968;9.062;2022-08-19T11:27:28;27.80;93.00
22114;DHT22;11223;49.968;9.062;2022-08-19T11:29:54;27.50;92.50
22114;DHT22;11223;49.968;9.062;2022-08-19T11:32:19;27.50;93.50
22114;DHT22;11223;49.968;9.062;2022-08-19T11:34:45;27.80;93.30
22114;DHT22;11223;49.968;9.062;2022-08-19T11:37:11;28.00;93.00
22114;DHT22;11223;49.968;9.062;2022-08-19T11:39:36;28.20;93.40
22114;DHT22;11223;49.968;9.062;2022-08-19T11:42:05;28.20;93.80
22114;DHT22;11223;49.968;9.062;2022-08-19T11:44:49;28.10;92.60
22114;DHT22;11223;49.968;9.062;2022-08-19T11:47:15;27.80;92.90
22114;DHT22;11223;49.968;9.062;2022-08-19T11:49:41;27.60;94.30
22114;DHT22;11223;49.968;9.062;2022-08-19T11:52:07;27.40;94.00
22114;DHT22;11223;49.968;9.062;2022-08-19T11:54:33;27.20;94.40
22114;DHT22;11223;49.968;9.062;2022-08-19T11:56:58;27.10;93.40
22114;DHT22;11223;49.968;9.062;2022-08-19T11:59:24;27.10;95.00
22114;DHT22;11223;49.968;9.062;2022-08-19T12:01:52;27.40;95.20
22114;DHT22;11223;49.968;9.062;2022-08-19T12:04:17;27.50;95.40
22114;DHT22;11223;49.968;9.062;2022-08-19T12:06:43;27.60;95.90
22114;DHT22;11223;49.968;9.062;2022-08-19T12:09:09;27.80;94.80
22114;DHT22;11223;49.968;9.062;2022-08-19T12:11:36;28.20;92.50
22114;DHT22;11223;49.968;9.062;2022-08-19T12:14:02;28.50;92.10
22114;DHT22;11223;49.968;9.062;2022-08-19T12:16:29;28.50;91.40
22114;DHT22;11223;49.968;9.062;2022-08-19T12:18:56;28.20;91.90
22114;DHT22;11223;49.968;9.062;2022-08-19T12:21:25;28.00;93.90
22114;DHT22;11223;49.968;9.062;2022-08-19T12:23:55;27.70;94.30
22114;DHT22;11223;49.968;9.062;2022-08-19T12:26:21;27.50;94.40
22114;DHT22;11223;49.968;9.062;2022-08-19T12:28:47;27.30;93.90
22114;DHT22;11223;49.968;9.062;2022-08-19T12:31:14;27.20;93.80
22114;DHT22;11223;49.968;9.062;2022-08-19T12:33:40;27.10;93.40
22114;DHT22;11223;49.968;9.062;2022-08-19T12:36:09;27.00;94.00
22114;DHT22;11223;49.968;9.062;2022-08-19T12:38:35;26.90;93.90
22114;DHT22;11223;49.968;9.062;2022-08-19T12:41:01;26.80;96.10
22114;DHT22;11223;49.968;9.062;2022-08-19T12:43:30;26.70;95.30
22114;DHT22;11223;49.968;9.062;2022-08-19T12:45:56;26.70;94.50
22114;DHT22;11223;49.968;9.062;2022-08-19T12:48:21;26.70;93.90
22114;DHT22;11223;49.968;9.062;2022-08-19T12:50:47;26.70;91.80
22114;DHT22;11223;49.968;9.062;2022-08-19T12:53:14;26.70;92.70
22114;DHT22;11223;49.968;9.062;2022-08-19T12:55:40;26.70;95.20
22114;DHT22;11223;49.968;9.062;2022-08-19T12:58:06;26.80;94.20
22114;DHT22;11223;49.968;9.062;2022-08-19T13:00:31;27.10;93.20
22114;DHT22;11223;49.968;9.062;2022-08-19T13:02:58;27.50;92.10
22114;DHT22;11223;49.968;9.062;2022-08-19T13:05:30;27.90;90.00
22114;DHT22;11223;49.968;9.062;2022-08-19T13:07:57;28.30;86.60
22114;DHT22;11223;49.968;9.062;2022-08-19T13:10:27;28.70;90.70
22114;DHT22;11223;49.968;9.062;2022-08-19T13:12:53;29.00;88.90
22114;DHT22;11223;49.968;9.062;2022-08-19T13:15:21;29.10;89.70
22114;DHT22;11223;49.968;9.062;2022-08-19T13:17:49;29.10;86.10
22114;DHT22;11223;49.968;9.062;2022-08-19T13:20:16;29.10;87.70
22114;DHT22;11223;49.968;9.062;2022-08-19T13:22:42;29.00;89.40
22114;DHT22;11223;49.968;9.062;2022-08-19T13:25:10;28.90;89.60
22114;DHT22;11223;49.968;9.062;2022-08-19T13:27:37;28.70;88.60
22114;DHT22;11223;49.968;9.062;2022-08-19T13:30:03;28.60;86.00
22114;DHT22;11223;49.968;9.062;2022-08-19T13:32:48;28.60;87.20
22114;DHT22;11223;49.968;9.062;2022-08-19T13:35:32;28.50;85.60
22114;DHT22;11223;49.968;9.062;2022-08-19T13:37:57;28.50;84.30
22114;DHT22;11223;49.968;9.062;2022-08-19T13:40:24;28.50;83.00
22114;DHT22;11223;49.968;9.062;2022-08-19T13:42:53;28.50;82.50
22114;DHT22;11223;49.968;9.062;2022-08-19T13:45:21;28.50;83.20
22114;DHT22;11223;49.968;9.062;2022-08-19T13:47:49;28.50;82.20
22114;DHT22;11223;49.968;9.062;2022-08-19T13:50:17;28.30;82.00
22114;DHT22;11223;49.968;9.062;2022-08-19T13:52:43;28.20;85.40
22114;DHT22;11223;49.968;9.062;2022-08-19T13:55:10;28.00;86.20
22114;DHT22;11223;49.968;9.062;2022-08-19T13:57:36;27.80;91.40
22114;DHT22;11223;49.968;9.062;2022-08-19T14:00:06;27.60;90.90
22114;DHT22;11223;49.968;9.062;2022-08-19T14:02:34;27.50;89.20
22114;DHT22;11223;49.968;9.062;2022-08-19T14:05:00;27.40;88.60
22114;DHT22;11223;49.968;9.062;2022-08-19T14:07:25;27.40;90.20
22114;DHT22;11223;49.968;9.062;2022-08-19T14:09:51;27.40;90.00
22114;DHT22;11223;49.968;9.062;2022-08-19T14:12:21;27.50;90.20
22114;DHT22;11223;49.968;9.062;2022-08-19T14:14:46;27.60;90.30
22114;DHT22;11223;49.968;9.062;2022-08-19T14:17:12;27.70;89.20
22114;DHT22;11223;49.968;9.062;2022-08-19T14:19:37;27.70;90.30
22114;DHT22;11223;49.968;9.062;2022-08-19T14:22:04;27.60;91.20
22114;DHT22;11223;49.968;9.062;2022-08-19T14:24:31;27.40;88.40
22114;DHT22;11223;49.968;9.062;2022-08-19T14:26:57;27.30;90.60
22114;DHT22;11223;49.968;9.062;2022-08-19T14:29:23;27.10;89.10
22114;DHT22;11223;49.968;9.062;2022-08-19T14:31:49;27.00;90.50
22114;DHT22;11223;49.968;9.062;2022-08-19T14:34:14;26.90;91.40
22114;DHT22;11223;49.968;9.062;2022-08-19T14:36:40;26.90;91.60
22114;DHT22;11223;49.968;9.062;2022-08-19T14:39:07;26.90;92.10
22114;DHT22;11223;49.968;9.062;2022-08-19T14:41:32;26.90;91.60
22114;DHT22;11223;49.968;9.062;2022-08-19T14:43:59;26.90;93.00
22114;DHT22;11223;49.968;9.062;2022-08-19T14:46:27;26.90;92.10
22114;DHT22;11223;49.968;9.062;2022-08-19T14:48:54;26.90;92.10
22114;DHT22;11223;49.968;9.062;2022-08-19T14:51:21;26.90;89.10
22114;DHT22;11223;49.968;9.062;2022-08-19T14:53:48;26.90;92.10
22114;DHT22;11223;49.968;9.062;2022-08-19T14:56:21;26.90;91.70
22114;DHT22;11223;49.968;9.062;2022-08-19T14:58:48;26.90;92.10
22114;DHT22;11223;49.968;9.062;2022-08-19T15:01:17;27.00;92.50
22114;DHT22;11223;49.968;9.062;2022-08-19T15:03:43;27.00;93.30
22114;DHT22;11223;49.968;9.062;2022-08-19T15:06:09;27.00;91.50
22114;DHT22;11223;49.968;9.062;2022-08-19T15:08:36;27.00;93.10
22114;DHT22;11223;49.968;9.062;2022-08-19T15:11:08;27.00;93.10
22114;DHT22;11223;49.968;9.062;2022-08-19T15:13:34;27.20;93.00
22114;DHT22;11223;49.968;9.062;2022-08-19T15:16:01;27.20;89.90
22114;DHT22;11223;49.968;9.062;2022-08-19T15:18:27;27.20;85.00
22114;DHT22;11223;49.968;9.062;2022-08-19T15:20:53;27.30;87.00
22114;DHT22;11223;49.968;9.062;2022-08-19T15:23:20;27.30;88.80
22114;DHT22;11223;49.968;9.062;2022-08-19T15:25:46;27.40;87.50
22114;DHT22;11223;49.968;9.062;2022-08-19T15:28:11;27.30;90.60
22114;DHT22;11223;49.968;9.062;2022-08-19T15:30:38;27.30;90.80
22114;DHT22;11223;49.968;9.062;2022-08-19T15:33:04;27.30;90.90
22114;DHT22;11223;49.968;9.062;2022-08-19T15:35:30;27.30;91.10
22114;DHT22;11223;49.968;9.062;2022-08-19T15:37:56;27.20;90.80
22114;DHT22;11223;49.968;9.062;2022-08-19T15:40:23;27.20;90.80
22114;DHT22;11223;49.968;9.062;2022-08-19T15:42:50;27.20;90.10
22114;DHT22;11223;49.968;9.062;2022-08-19T15:45:17;27.20;90.60
22114;DHT22;11223;49.968;9.062;2022-08-19T15:47:43;27.00;91.10